Terminal Aerodrome Forecast
Issued by NWS

Home | Current Version | Previous Version | Text Only | Print | Product List | Glossary On
Versions: 1 2 3 4 5 6 7 8 9 10 11 12 13
961
FTUS44 KLIX 291730
TAFMSY
TAF
KMSY 291730Z 2918/3018 17004KT P6SM VCTS BKN025CB
     FM300100 19004KT P6SM SCT080 BKN250
     FM301500 25005KT P6SM BKN250=

USA.gov is the U.S. government's official web portal to all federal, state and local government web resources and services.